sensor_id;sensor_type;location;lat;lon;timestamp;pressure;altitude;pressure_sealevel;temperature;humidity
7802;BME280;3945;48.952;9.506;2022-10-03T00:00:07;98753.13;;;13.00;100.00
7802;BME280;3945;48.952;9.506;2022-10-03T00:05:23;98764.38;;;13.02;100.00
7802;BME280;3945;48.952;9.506;2022-10-03T00:07:58;98758.47;;;13.00;100.00
7802;BME280;3945;48.952;9.506;2022-10-03T00:10:29;98772.28;;;12.97;100.00
7802;BME280;3945;48.952;9.506;2022-10-03T00:13:02;98770.91;;;12.95;100.00
7802;BME280;3945;48.952;9.506;2022-10-03T00:15:33;98778.91;;;12.95;100.00
7802;BME280;3945;48.952;9.506;2022-10-03T00:18:06;98778.91;;;12.95;100.00
7802;BME280;3945;48.952;9.506;2022-10-03T00:20:45;98785.06;;;12.95;100.00
7802;BME280;3945;48.952;9.506;2022-10-03T00:23:15;98780.78;;;12.94;100.00
7802;BME280;3945;48.952;9.506;2022-10-03T00:25:45;98779.72;;;12.95;100.00
7802;BME280;3945;48.952;9.506;2022-10-03T00:28:18;98788.22;;;12.92;100.00
7802;BME280;3945;48.952;9.506;2022-10-03T00:30:53;98786.56;;;12.91;100.00
7802;BME280;3945;48.952;9.506;2022-10-03T00:33:29;98786.81;;;12.89;100.00
7802;BME280;3945;48.952;9.506;2022-10-03T00:36:02;98789.72;;;12.88;100.00
7802;BME280;3945;48.952;9.506;2022-10-03T00:38:38;98792.84;;;12.85;100.00
7802;BME280;3945;48.952;9.506;2022-10-03T00:41:13;98795.19;;;12.81;100.00
7802;BME280;3945;48.952;9.506;2022-10-03T00:43:59;98804.03;;;12.82;100.00
7802;BME280;3945;48.952;9.506;2022-10-03T00:46:34;98806.09;;;12.80;100.00
7802;BME280;3945;48.952;9.506;2022-10-03T00:49:21;98811.69;;;12.78;100.00
7802;BME280;3945;48.952;9.506;2022-10-03T00:52:02;98816.44;;;12.76;100.00
7802;BME280;3945;48.952;9.506;2022-10-03T00:54:37;98819.69;;;12.78;100.00
7802;BME280;3945;48.952;9.506;2022-10-03T00:57:10;98817.38;;;12.82;100.00
7802;BME280;3945;48.952;9.506;2022-10-03T00:59:51;98813.31;;;12.79;100.00
7802;BME280;3945;48.952;9.506;2022-10-03T01:02:25;98815.16;;;12.79;100.00
7802;BME280;3945;48.952;9.506;2022-10-03T01:04:54;98805.28;;;12.79;100.00
7802;BME280;3945;48.952;9.506;2022-10-03T01:07:37;98806.94;;;12.80;100.00
7802;BME280;3945;48.952;9.506;2022-10-03T01:10:12;98809.00;;;12.78;100.00
7802;BME280;3945;48.952;9.506;2022-10-03T01:12:50;98808.31;;;12.83;100.00
7802;BME280;3945;48.952;9.506;2022-10-03T01:15:24;98806.94;;;12.80;100.00
7802;BME280;3945;48.952;9.506;2022-10-03T01:17:58;98811.69;;;12.78;100.00
7802;BME280;3945;48.952;9.506;2022-10-03T01:20:31;98819.38;;;12.75;100.00
7802;BME280;3945;48.952;9.506;2022-10-03T01:23:05;98814.25;;;12.73;100.00
7802;BME280;3945;48.952;9.506;2022-10-03T01:25:38;98817.94;;;12.72;100.00
7802;BME280;3945;48.952;9.506;2022-10-03T01:28:26;98805.19;;;12.74;100.00
7802;BME280;3945;48.952;9.506;2022-10-03T01:31:16;98806.00;;;12.75;100.00
7802;BME280;3945;48.952;9.506;2022-10-03T01:33:45;98810.53;;;12.74;100.00
7802;BME280;3945;48.952;9.506;2022-10-03T01:36:18;98804.38;;;12.74;100.00
7802;BME280;3945;48.952;9.506;2022-10-03T01:38:46;98801.72;;;12.74;100.00
7802;BME280;3945;48.952;9.506;2022-10-03T01:41:19;98800.06;;;12.73;100.00
7802;BME280;3945;48.952;9.506;2022-10-03T01:43:52;98804.38;;;12.74;100.00
7802;BME280;3945;48.952;9.506;2022-10-03T01:46:20;98811.34;;;12.75;100.00
7802;BME280;3945;48.952;9.506;2022-10-03T01:48:50;98814.25;;;12.73;100.00
7802;BME280;3945;48.952;9.506;2022-10-03T01:51:20;98817.94;;;12.72;100.00
7802;BME280;3945;48.952;9.506;2022-10-03T01:53:56;98823.88;;;12.74;100.00
7802;BME280;3945;48.952;9.506;2022-10-03T01:56:26;98822.81;;;12.75;100.00
7802;BME280;3945;48.952;9.506;2022-10-03T01:58:58;98824.44;;;12.76;100.00
7802;BME280;3945;48.952;9.506;2022-10-03T02:01:27;98835.13;;;12.76;100.00
7802;BME280;3945;48.952;9.506;2022-10-03T02:03:55;98836.97;;;12.76;100.00
7802;BME280;3945;48.952;9.506;2022-10-03T02:06:27;98841.28;;;12.77;100.00
7802;BME280;3945;48.952;9.506;2022-10-03T02:09:00;98849.78;;;12.74;100.00
7802;BME280;3945;48.952;9.506;2022-10-03T02:11:30;98839.44;;;12.77;100.00
7802;BME280;3945;48.952;9.506;2022-10-03T02:14:06;98843.13;;;12.76;100.00
7802;BME280;3945;48.952;9.506;2022-10-03T02:16:39;98852.19;;;12.75;100.00
7802;BME280;3945;48.952;9.506;2022-10-03T02:19:09;98842.59;;;12.74;100.00
7802;BME280;3945;48.952;9.506;2022-10-03T02:21:44;98845.00;;;12.76;100.00
7802;BME280;3945;48.952;9.506;2022-10-03T02:24:16;98844.19;;;12.75;100.00
7802;BME280;3945;48.952;9.506;2022-10-03T02:29:46;98856.38;;;12.71;100.00
7802;BME280;3945;48.952;9.506;2022-10-03T02:35:23;98852.31;;;12.69;100.00
7802;BME280;3945;48.952;9.506;2022-10-03T02:40:49;98855.78;;;12.69;100.00
7802;BME280;3945;48.952;9.506;2022-10-03T02:43:32;98849.06;;;12.67;100.00
7802;BME280;3945;48.952;9.506;2022-10-03T02:46:32;98852.78;;;12.66;100.00
7802;BME280;3945;48.952;9.506;2022-10-03T02:52:03;98864.28;;;12.66;100.00
7802;BME280;3945;48.952;9.506;2022-10-03T02:57:31;98863.91;;;12.63;100.00
7802;BME280;3945;48.952;9.506;2022-10-03T03:00:05;98865.56;;;12.64;100.00
7802;BME280;3945;48.952;9.506;2022-10-03T03:02:48;98854.06;;;12.63;100.00
7802;BME280;3945;48.952;9.506;2022-10-03T03:08:17;98856.13;;;12.61;100.00
7802;BME280;3945;48.952;9.506;2022-10-03T03:11:03;98857.75;;;12.62;100.00
7802;BME280;3945;48.952;9.506;2022-10-03T03:13:44;98849.75;;;12.62;100.00
7802;BME280;3945;48.952;9.506;2022-10-03T03:16:39;98857.31;;;12.65;100.00
7802;BME280;3945;48.952;9.506;2022-10-03T03:19:17;98853.81;;;12.65;100.00
7802;BME280;3945;48.952;9.506;2022-10-03T03:21:51;98855.69;;;12.64;100.00
7802;BME280;3945;48.952;9.506;2022-10-03T03:24:25;98854.66;;;12.65;100.00
7802;BME280;3945;48.952;9.506;2022-10-03T03:26:59;98847.44;;;12.66;100.00
7802;BME280;3945;48.952;9.506;2022-10-03T03:29:33;98853.72;;;12.71;100.00
7802;BME280;3945;48.952;9.506;2022-10-03T03:32:06;98842.09;;;12.66;100.00
7802;BME280;3945;48.952;9.506;2022-10-03T03:34:41;98846.41;;;12.67;100.00
7802;BME280;3945;48.952;9.506;2022-10-03T03:37:10;98843.97;;;12.65;100.00
7802;BME280;3945;48.952;9.506;2022-10-03T03:39:46;98848.03;;;12.68;100.00
7802;BME280;3945;48.952;9.506;2022-10-03T03:42:23;98842.91;;;12.66;100.00
7802;BME280;3945;48.952;9.506;2022-10-03T03:44:58;98844.56;;;12.67;100.00
7802;BME280;3945;48.952;9.506;2022-10-03T03:47:35;98851.75;;;12.67;100.00
7802;BME280;3945;48.952;9.506;2022-10-03T03:50:14;98853.38;;;12.68;100.00
7802;BME280;3945;48.952;9.506;2022-10-03T03:52:47;98850.13;;;12.66;100.00
7802;BME280;3945;48.952;9.506;2022-10-03T03:55:22;98858.13;;;12.66;100.00
7802;BME280;3945;48.952;9.506;2022-10-03T03:57:59;98856.84;;;12.68;100.00
7802;BME280;3945;48.952;9.506;2022-10-03T04:00:35;98855.78;;;12.69;100.00
7802;BME280;3945;48.952;9.506;2022-10-03T04:03:11;98857.09;;;12.67;100.00
7802;BME280;3945;48.952;9.506;2022-10-03T04:05:49;98860.09;;;12.70;100.00
7802;BME280;3945;48.952;9.506;2022-10-03T04:08:25;98862.53;;;12.72;100.00
7802;BME280;3945;48.952;9.506;2022-10-03T04:10:59;98869.97;;;12.70;100.00
7802;BME280;3945;48.952;9.506;2022-10-03T04:19:22;98871.38;;;12.72;100.00
7802;BME280;3945;48.952;9.506;2022-10-03T04:22:00;98873.22;;;12.72;100.00
7802;BME280;3945;48.952;9.506;2022-10-03T04:24:44;98871.81;;;12.69;100.00
7802;BME280;3945;48.952;9.506;2022-10-03T04:27:21;98879.00;;;12.69;100.00
7802;BME280;3945;48.952;9.506;2022-10-03T04:29:50;98881.13;;;12.67;100.00
7802;BME280;3945;48.952;9.506;2022-10-03T04:32:33;98878.47;;;12.67;100.00
7802;BME280;3945;48.952;9.506;2022-10-03T04:35:21;98881.34;;;12.65;100.00
7802;BME280;3945;48.952;9.506;2022-10-03T04:37:53;98882.16;;;12.66;100.00
7802;BME280;3945;48.952;9.506;2022-10-03T04:40:24;98875.78;;;12.67;100.00
7802;BME280;3945;48.952;9.506;2022-10-03T04:42:57;98872.28;;;12.66;100.00
7802;BME280;3945;48.952;9.506;2022-10-03T04:45:32;98872.06;;;12.68;100.00
7802;BME280;3945;48.952;9.506;2022-10-03T04:48:04;98865.31;;;12.65;100.00
7802;BME280;3945;48.952;9.506;2022-10-03T04:50:33;98868.81;;;12.66;100.00
7802;BME280;3945;48.952;9.506;2022-10-03T04:53:08;98862.06;;;12.63;100.00
7802;BME280;3945;48.952;9.506;2022-10-03T04:55:38;98871.13;;;12.62;100.00
7802;BME280;3945;48.952;9.506;2022-10-03T04:58:13;98872.16;;;12.61;100.00
7802;BME280;3945;48.952;9.506;2022-10-03T05:00:46;98876.94;;;12.59;100.00
7802;BME280;3945;48.952;9.506;2022-10-03T05:03:18;98875.31;;;12.58;100.00
7802;BME280;3945;48.952;9.506;2022-10-03T05:05:49;98876.56;;;12.56;100.00
7802;BME280;3945;48.952;9.506;2022-10-03T05:08:21;98871.34;;;12.49;100.00
7802;BME280;3945;48.952;9.506;2022-10-03T05:13:39;98870.84;;;12.40;99.88
7802;BME280;3945;48.952;9.506;2022-10-03T05:16:13;98877.91;;;12.35;99.78
7802;BME280;3945;48.952;9.506;2022-10-03T05:18:43;98878.03;;;12.28;99.68
7802;BME280;3945;48.952;9.506;2022-10-03T05:21:12;98880.09;;;12.26;99.45
7802;BME280;3945;48.952;9.506;2022-10-03T05:23:46;98884.88;;;12.24;99.63
7802;BME280;3945;48.952;9.506;2022-10-03T05:26:20;98882.41;;;12.23;99.21
7802;BME280;3945;48.952;9.506;2022-10-03T05:28:48;98884.28;;;12.22;99.70
7802;BME280;3945;48.952;9.506;2022-10-03T05:31:33;98892.63;;;12.26;99.42
7802;BME280;3945;48.952;9.506;2022-10-03T05:34:05;98890.78;;;12.26;100.00
7802;BME280;3945;48.952;9.506;2022-10-03T05:36:44;98893.44;;;12.26;100.00
7802;BME280;3945;48.952;9.506;2022-10-03T05:39:27;98897.53;;;12.29;100.00
7802;BME280;3945;48.952;9.506;2022-10-03T05:41:58;98893.66;;;12.25;99.94
7802;BME280;3945;48.952;9.506;2022-10-03T05:44:31;98897.41;;;12.24;99.95
7802;BME280;3945;48.952;9.506;2022-10-03T05:47:06;98906.78;;;12.26;100.00
7802;BME280;3945;48.952;9.506;2022-10-03T05:49:58;98904.94;;;12.27;99.71
7802;BME280;3945;48.952;9.506;2022-10-03T05:52:36;98913.75;;;12.27;99.79
7802;BME280;3945;48.952;9.506;2022-10-03T05:55:16;98916.41;;;12.27;99.84
7802;BME280;3945;48.952;9.506;2022-10-03T05:57:54;98917.47;;;12.26;99.81
7802;BME280;3945;48.952;9.506;2022-10-03T06:00:28;98925.69;;;12.25;99.71
7802;BME280;3945;48.952;9.506;2022-10-03T06:11:29;98940.41;;;12.16;99.65
7802;BME280;3945;48.952;9.506;2022-10-03T06:14:19;98945.75;;;12.16;99.48
7802;BME280;3945;48.952;9.506;2022-10-03T06:16:53;98951.72;;;12.11;99.87
7802;BME280;3945;48.952;9.506;2022-10-03T06:19:23;98957.66;;;12.13;99.93
7802;BME280;3945;48.952;9.506;2022-10-03T06:21:59;98957.22;;;12.16;99.74
7802;BME280;3945;48.952;9.506;2022-10-03T06:24:50;98960.47;;;12.18;99.42
7802;BME280;3945;48.952;9.506;2022-10-03T06:30:19;98968.25;;;12.20;99.51
7802;BME280;3945;48.952;9.506;2022-10-03T06:35:53;98962.97;;;12.31;99.63
7802;BME280;3945;48.952;9.506;2022-10-03T06:44:11;98972.06;;;12.42;100.00
7802;BME280;3945;48.952;9.506;2022-10-03T06:46:47;98972.19;;;12.47;100.00
7802;BME280;3945;48.952;9.506;2022-10-03T06:49:31;98973.25;;;12.46;99.65
7802;BME280;3945;48.952;9.506;2022-10-03T06:57:41;98975.69;;;12.47;99.92
7802;BME280;3945;48.952;9.506;2022-10-03T07:00:13;98975.22;;;12.50;99.53
7802;BME280;3945;48.952;9.506;2022-10-03T07:03:00;98977.91;;;12.50;100.00
7802;BME280;3945;48.952;9.506;2022-10-03T07:05:46;98982.56;;;12.55;100.00
7802;BME280;3945;48.952;9.506;2022-10-03T07:11:06;98980.91;;;12.54;100.00
7802;BME280;3945;48.952;9.506;2022-10-03T07:13:52;98990.78;;;12.53;100.00
7802;BME280;3945;48.952;9.506;2022-10-03T07:16:30;98993.59;;;12.59;99.78
7802;BME280;3945;48.952;9.506;2022-10-03T07:19:14;98990.47;;;12.62;99.71
7802;BME280;3945;48.952;9.506;2022-10-03T07:27:18;99006.38;;;12.68;99.31
7802;BME280;3945;48.952;9.506;2022-10-03T07:49:41;99024.44;;;12.73;94.80
7802;BME280;3945;48.952;9.506;2022-10-03T07:52:20;99026.19;;;12.79;95.50
7802;BME280;3945;48.952;9.506;2022-10-03T07:55:04;99030.00;;;12.83;96.10
7802;BME280;3945;48.952;9.506;2022-10-03T07:57:48;99034.47;;;12.89;96.09
7802;BME280;3945;48.952;9.506;2022-10-03T08:00:20;99036.22;;;12.95;95.86
7802;BME280;3945;48.952;9.506;2022-10-03T08:05:39;99028.66;;;12.92;93.92
7802;BME280;3945;48.952;9.506;2022-10-03T08:11:02;99034.72;;;12.99;94.03
7802;BME280;3945;48.952;9.506;2022-10-03T08:13:34;99037.66;;;13.09;93.79
7802;BME280;3945;48.952;9.506;2022-10-03T08:16:15;99036.16;;;13.13;94.07
7802;BME280;3945;48.952;9.506;2022-10-03T08:19:01;99035.84;;;13.21;93.88
7802;BME280;3945;48.952;9.506;2022-10-03T08:21:38;99037.00;;;13.25;92.85
7802;BME280;3945;48.952;9.506;2022-10-03T08:24:15;99038.06;;;13.24;92.03
7802;BME280;3945;48.952;9.506;2022-10-03T08:26:50;99028.19;;;13.25;90.99
7802;BME280;3945;48.952;9.506;2022-10-03T08:29:33;99038.19;;;13.29;89.33
7802;BME280;3945;48.952;9.506;2022-10-03T08:40:35;99038.44;;;13.40;90.48
7802;BME280;3945;48.952;9.506;2022-10-03T08:46:08;99032.97;;;13.46;92.05
7802;BME280;3945;48.952;9.506;2022-10-03T08:48:42;99028.66;;;13.45;91.38
7802;BME280;3945;48.952;9.506;2022-10-03T08:51:26;99032.16;;;13.46;91.17
7802;BME280;3945;48.952;9.506;2022-10-03T08:56:45;99039.81;;;13.42;90.42
7802;BME280;3945;48.952;9.506;2022-10-03T09:13:12;99027.25;;;13.54;91.00
7802;BME280;3945;48.952;9.506;2022-10-03T09:18:40;99036.44;;;13.93;87.53
7802;BME280;3945;48.952;9.506;2022-10-03T09:26:53;99029.09;;;14.80;82.46
7802;BME280;3945;48.952;9.506;2022-10-03T09:35:09;99035.34;;;14.58;83.44
7802;BME280;3945;48.952;9.506;2022-10-03T09:37:53;99032.72;;;14.46;84.78
7802;BME280;3945;48.952;9.506;2022-10-03T09:40:40;99036.13;;;14.30;83.01
7802;BME280;3945;48.952;9.506;2022-10-03T09:43:29;99036.03;;;14.13;82.25
7802;BME280;3945;48.952;9.506;2022-10-03T09:46:11;99031.84;;;14.05;83.27
7802;BME280;3945;48.952;9.506;2022-10-03T09:48:48;99032.81;;;13.99;84.28
7802;BME280;3945;48.952;9.506;2022-10-03T09:51:33;99029.56;;;13.97;84.05
7802;BME280;3945;48.952;9.506;2022-10-03T09:56:54;99036.28;;;14.00;84.40
7802;BME280;3945;48.952;9.506;2022-10-03T09:59:41;99029.41;;;14.16;85.65
7802;BME280;3945;48.952;9.506;2022-10-03T10:02:26;99028.41;;;14.45;85.84
7802;BME280;3945;48.952;9.506;2022-10-03T10:05:00;99028.66;;;14.72;84.12
7802;BME280;3945;48.952;9.506;2022-10-03T10:10:34;99023.69;;;15.09;81.59
7802;BME280;3945;48.952;9.506;2022-10-03T10:13:15;99025.63;;;15.13;81.42
7802;BME280;3945;48.952;9.506;2022-10-03T10:16:08;99033.94;;;15.12;80.96
7802;BME280;3945;48.952;9.506;2022-10-03T10:18:43;99026.53;;;15.02;80.58
7802;BME280;3945;48.952;9.506;2022-10-03T10:21:35;99035.44;;;14.91;79.22
7802;BME280;3945;48.952;9.506;2022-10-03T10:24:10;99039.88;;;14.69;79.56
7802;BME280;3945;48.952;9.506;2022-10-03T10:29:37;99044.25;;;14.47;81.68
7802;BME280;3945;48.952;9.506;2022-10-03T10:35:12;99048.44;;;14.42;84.84
7802;BME280;3945;48.952;9.506;2022-10-03T10:37:58;99054.63;;;14.43;83.47
7802;BME280;3945;48.952;9.506;2022-10-03T10:46:30;99042.06;;;15.17;83.75
7802;BME280;3945;48.952;9.506;2022-10-03T10:49:20;99044.59;;;15.40;80.84
7802;BME280;3945;48.952;9.506;2022-10-03T10:52:08;99046.53;;;15.45;79.54
7802;BME280;3945;48.952;9.506;2022-10-03T10:55:03;99044.31;;;15.42;77.69
7802;BME280;3945;48.952;9.506;2022-10-03T10:57:44;99042.44;;;15.42;79.27
7802;BME280;3945;48.952;9.506;2022-10-03T11:00:16;99044.91;;;15.44;80.75
7802;BME280;3945;48.952;9.506;2022-10-03T11:05:45;99033.34;;;15.43;77.33
7802;BME280;3945;48.952;9.506;2022-10-03T11:08:39;99042.78;;;15.46;77.86
7802;BME280;3945;48.952;9.506;2022-10-03T11:14:04;99034.38;;;15.54;78.74
7802;BME280;3945;48.952;9.506;2022-10-03T11:16:50;99038.09;;;15.53;76.69
7802;BME280;3945;48.952;9.506;2022-10-03T11:28:09;99020.03;;;15.48;77.04
7802;BME280;3945;48.952;9.506;2022-10-03T11:38:54;99019.97;;;15.60;75.41
7802;BME280;3945;48.952;9.506;2022-10-03T11:41:27;99016.22;;;15.61;74.12
7802;BME280;3945;48.952;9.506;2022-10-03T11:44:02;99013.28;;;15.46;74.00
7802;BME280;3945;48.952;9.506;2022-10-03T11:46:43;99021.00;;;15.42;75.53
7802;BME280;3945;48.952;9.506;2022-10-03T11:49:15;99027.19;;;15.43;75.88
7802;BME280;3945;48.952;9.506;2022-10-03T11:51:50;99030.38;;;15.40;76.59
7802;BME280;3945;48.952;9.506;2022-10-03T11:54:21;99025.72;;;15.35;73.57
7802;BME280;3945;48.952;9.506;2022-10-03T11:56:49;99021.25;;;15.24;76.00
7802;BME280;3945;48.952;9.506;2022-10-03T11:59:27;99022.41;;;15.11;77.01
7802;BME280;3945;48.952;9.506;2022-10-03T12:01:59;99017.75;;;15.07;77.83
7802;BME280;3945;48.952;9.506;2022-10-03T12:04:30;99021.16;;;15.02;78.77
7802;BME280;3945;48.952;9.506;2022-10-03T12:07:00;99023.25;;;15.00;79.52
7802;BME280;3945;48.952;9.506;2022-10-03T12:09:54;99022.94;;;14.97;79.39
7802;BME280;3945;48.952;9.506;2022-10-03T12:12:25;99009.31;;;14.98;79.61
7802;BME280;3945;48.952;9.506;2022-10-03T12:14:56;99011.19;;;14.98;79.18
7802;BME280;3945;48.952;9.506;2022-10-03T12:17:26;99008.56;;;15.03;80.04
7802;BME280;3945;48.952;9.506;2022-10-03T12:19:58;99009.97;;;15.05;78.81
7802;BME280;3945;48.952;9.506;2022-10-03T12:22:33;99006.47;;;15.05;78.26
7802;BME280;3945;48.952;9.506;2022-10-03T12:25:05;99007.34;;;15.10;77.62
7802;BME280;3945;48.952;9.506;2022-10-03T12:27:41;99006.84;;;15.13;76.97
7802;BME280;3945;48.952;9.506;2022-10-03T12:30:14;99004.81;;;15.20;78.07
7802;BME280;3945;48.952;9.506;2022-10-03T12:32:43;98993.97;;;15.27;79.83
7802;BME280;3945;48.952;9.506;2022-10-03T12:35:19;98987.63;;;15.33;78.36
7802;BME280;3945;48.952;9.506;2022-10-03T12:38:00;98998.47;;;15.43;78.62
7802;BME280;3945;48.952;9.506;2022-10-03T12:40:30;98987.13;;;15.53;76.99
7802;BME280;3945;48.952;9.506;2022-10-03T12:43:04;98985.09;;;15.60;77.32
7802;BME280;3945;48.952;9.506;2022-10-03T12:45:37;98984.09;;;15.66;77.02
7802;BME280;3945;48.952;9.506;2022-10-03T12:48:16;98991.66;;;15.69;76.08
7802;BME280;3945;48.952;9.506;2022-10-03T12:50:45;98982.03;;;15.73;75.81
7802;BME280;3945;48.952;9.506;2022-10-03T12:53:23;98981.84;;;15.80;76.18
7802;BME280;3945;48.952;9.506;2022-10-03T12:55:56;98978.69;;;15.83;73.55
7802;BME280;3945;48.952;9.506;2022-10-03T12:58:27;98988.66;;;15.87;74.32
7802;BME280;3945;48.952;9.506;2022-10-03T13:00:58;98987.19;;;15.96;68.14
7802;BME280;3945;48.952;9.506;2022-10-03T13:03:31;98980.44;;;16.16;71.13
7802;BME280;3945;48.952;9.506;2022-10-03T13:06:16;98977.31;;;16.24;66.12
7802;BME280;3945;48.952;9.506;2022-10-03T13:08:51;98974.38;;;16.25;66.27
7802;BME280;3945;48.952;9.506;2022-10-03T13:11:22;98976.44;;;16.18;69.54
7802;BME280;3945;48.952;9.506;2022-10-03T13:13:55;98973.75;;;16.18;71.45
7802;BME280;3945;48.952;9.506;2022-10-03T13:16:30;98966.28;;;16.20;71.55
7802;BME280;3945;48.952;9.506;2022-10-03T13:18:58;98966.88;;;16.27;70.27
7802;BME280;3945;48.952;9.506;2022-10-03T13:21:31;98965.47;;;16.47;73.34
7802;BME280;3945;48.952;9.506;2022-10-03T13:24:03;98969.25;;;16.51;67.17
7802;BME280;3945;48.952;9.506;2022-10-03T13:26:36;98959.31;;;16.51;67.81
7802;BME280;3945;48.952;9.506;2022-10-03T13:29:11;98960.22;;;16.57;67.82
7802;BME280;3945;48.952;9.506;2022-10-03T13:31:47;98963.69;;;16.57;68.59
7802;BME280;3945;48.952;9.506;2022-10-03T13:34:18;98963.16;;;16.55;66.06
7802;BME280;3945;48.952;9.506;2022-10-03T13:36:46;98962.81;;;16.52;67.12
7802;BME280;3945;48.952;9.506;2022-10-03T13:39:16;98958.19;;;16.42;64.65
7802;BME280;3945;48.952;9.506;2022-10-03T13:41:55;98959.44;;;16.34;63.81
7802;BME280;3945;48.952;9.506;2022-10-03T13:44:26;98961.81;;;16.31;65.96
7802;BME280;3945;48.952;9.506;2022-10-03T13:46:58;98958.31;;;16.30;65.20
7802;BME280;3945;48.952;9.506;2022-10-03T13:49:28;98954.31;;;16.33;67.94
7802;BME280;3945;48.952;9.506;2022-10-03T13:51:58;98949.50;;;16.35;67.22
7802;BME280;3945;48.952;9.506;2022-10-03T13:54:35;98957.03;;;16.38;67.98
7802;BME280;3945;48.952;9.506;2022-10-03T13:57:08;98950.72;;;16.49;67.14
7802;BME280;3945;48.952;9.506;2022-10-03T13:59:42;98952.16;;;16.57;65.93
7802;BME280;3945;48.952;9.506;2022-10-03T14:02:16;98948.91;;;16.55;68.21
7802;BME280;3945;48.952;9.506;2022-10-03T14:04:54;98944.09;;;16.57;67.35
7802;BME280;3945;48.952;9.506;2022-10-03T14:07:25;98945.69;;;16.58;68.69
7802;BME280;3945;48.952;9.506;2022-10-03T14:10:00;98942.19;;;16.57;68.95
7802;BME280;3945;48.952;9.506;2022-10-03T14:12:34;98931.16;;;16.54;67.28
7802;BME280;3945;48.952;9.506;2022-10-03T14:15:15;98938.66;;;16.52;68.64
7802;BME280;3945;48.952;9.506;2022-10-03T14:17:47;98945.66;;;16.53;69.63
7802;BME280;3945;48.952;9.506;2022-10-03T14:20:22;98931.97;;;16.54;70.61
7802;BME280;3945;48.952;9.506;2022-10-03T14:22:56;98942.19;;;16.57;69.23
7802;BME280;3945;48.952;9.506;2022-10-03T14:25:26;98937.00;;;16.51;67.73
7802;BME280;3945;48.952;9.506;2022-10-03T14:27:54;98933.47;;;16.45;68.77
7802;BME280;3945;48.952;9.506;2022-10-03T14:30:23;98924.34;;;16.46;70.01
7802;BME280;3945;48.952;9.506;2022-10-03T14:33:09;98928.09;;;16.45;69.32
7802;BME280;3945;48.952;9.506;2022-10-03T14:35:42;98923.75;;;16.39;66.94
7802;BME280;3945;48.952;9.506;2022-10-03T14:38:15;98925.81;;;16.32;65.12
7802;BME280;3945;48.952;9.506;2022-10-03T14:40:47;98926.88;;;16.31;67.03
7802;BME280;3945;48.952;9.506;2022-10-03T14:43:19;98920.13;;;16.28;68.19
7802;BME280;3945;48.952;9.506;2022-10-03T14:45:50;98921.44;;;16.21;66.21
7802;BME280;3945;48.952;9.506;2022-10-03T14:48:19;98923.28;;;16.20;67.22
7802;BME280;3945;48.952;9.506;2022-10-03T14:50:47;98920.59;;;16.20;68.50
7802;BME280;3945;48.952;9.506;2022-10-03T14:53:16;98931.88;;;16.22;69.70
7802;BME280;3945;48.952;9.506;2022-10-03T14:55:45;98922.47;;;16.20;69.55
7802;BME280;3945;48.952;9.506;2022-10-03T14:58:19;98909.78;;;16.15;70.56
7802;BME280;3945;48.952;9.506;2022-10-03T15:00:46;98918.91;;;16.14;70.91
7802;BME280;3945;48.952;9.506;2022-10-03T15:03:23;98913.00;;;16.12;70.74
7802;BME280;3945;48.952;9.506;2022-10-03T15:05:57;98919.09;;;16.08;72.84
7802;BME280;3945;48.952;9.506;2022-10-03T15:08:25;98925.25;;;16.03;73.38
7802;BME280;3945;48.952;9.506;2022-10-03T15:10:55;98917.88;;;15.93;74.27
7802;BME280;3945;48.952;9.506;2022-10-03T15:13:21;98908.09;;;15.82;74.50
7802;BME280;3945;48.952;9.506;2022-10-03T15:15:49;98900.91;;;15.66;74.69
7802;BME280;3945;48.952;9.506;2022-10-03T15:18:17;98910.13;;;15.53;75.83
7802;BME280;3945;48.952;9.506;2022-10-03T15:20:46;98907.22;;;15.38;76.01
7802;BME280;3945;48.952;9.506;2022-10-03T15:23:17;98914.56;;;15.26;76.63
7802;BME280;3945;48.952;9.506;2022-10-03T15:25:44;98914.97;;;15.18;76.95
7802;BME280;3945;48.952;9.506;2022-10-03T15:28:18;98910.25;;;15.08;76.84
7802;BME280;3945;48.952;9.506;2022-10-03T15:30:45;98910.44;;;15.02;77.22
7802;BME280;3945;48.952;9.506;2022-10-03T15:33:12;98916.78;;;14.96;77.58
7802;BME280;3945;48.952;9.506;2022-10-03T15:35:40;98918.06;;;14.93;78.26
7802;BME280;3945;48.952;9.506;2022-10-03T15:38:12;98907.03;;;14.90;78.77
7802;BME280;3945;48.952;9.506;2022-10-03T15:40:42;98903.31;;;14.91;78.68
7802;BME280;3945;48.952;9.506;2022-10-03T15:43:16;98911.66;;;14.94;78.84
7802;BME280;3945;48.952;9.506;2022-10-03T15:45:46;98903.84;;;14.93;78.89
7802;BME280;3945;48.952;9.506;2022-10-03T15:48:14;98906.00;;;14.91;78.96
7802;BME280;3945;48.952;9.506;2022-10-03T15:50:41;98904.84;;;14.87;79.35
7802;BME280;3945;48.952;9.506;2022-10-03T15:53:17;98902.38;;;14.85;79.61
7802;BME280;3945;48.952;9.506;2022-10-03T15:55:47;98896.47;;;14.83;79.86
7802;BME280;3945;48.952;9.506;2022-10-03T15:58:15;98900.22;;;14.82;80.17
7802;BME280;3945;48.952;9.506;2022-10-03T16:00:43;98902.66;;;14.83;80.19
7802;BME280;3945;48.952;9.506;2022-10-03T16:03:11;98899.97;;;14.83;80.35
7802;BME280;3945;48.952;9.506;2022-10-03T16:05:41;98896.16;;;14.79;80.27
7802;BME280;3945;48.952;9.506;2022-10-03T16:08:09;98897.19;;;14.78;80.26
7802;BME280;3945;48.952;9.506;2022-10-03T16:10:39;98898.53;;;14.76;80.28
7802;BME280;3945;48.952;9.506;2022-10-03T16:13:12;98897.13;;;14.73;80.47
7802;BME280;3945;48.952;9.506;2022-10-03T16:15:48;98901.91;;;14.71;80.69
7802;BME280;3945;48.952;9.506;2022-10-03T16:21:03;98906.31;;;14.61;80.78
7802;BME280;3945;48.952;9.506;2022-10-03T16:23:31;98900.03;;;14.55;80.97
7802;BME280;3945;48.952;9.506;2022-10-03T16:26:02;98894.81;;;14.49;81.38
7802;BME280;3945;48.952;9.506;2022-10-03T16:28:30;98889.88;;;14.40;82.06
7802;BME280;3945;48.952;9.506;2022-10-03T16:31:00;98897.78;;;14.35;82.27
7802;BME280;3945;48.952;9.506;2022-10-03T16:33:29;98903.88;;;14.31;82.69
7802;BME280;3945;48.952;9.506;2022-10-03T16:35:59;98900.53;;;14.24;82.28
7802;BME280;3945;48.952;9.506;2022-10-03T16:38:28;98890.44;;;14.14;82.79
7802;BME280;3945;48.952;9.506;2022-10-03T16:40:57;98890.34;;;14.09;82.67
7802;BME280;3945;48.952;9.506;2022-10-03T16:43:27;98896.31;;;13.99;82.22
7802;BME280;3945;48.952;9.506;2022-10-03T16:45:55;98894.28;;;13.90;82.06
7802;BME280;3945;48.952;9.506;2022-10-03T16:48:26;98893.47;;;13.78;82.04
7802;BME280;3945;48.952;9.506;2022-10-03T16:51:16;98903.63;;;13.64;82.20